TFM - Tactical Decision Aid
ID: Runway Winds: CIG/VIS Threshold:

KDEN - Denver Intl, CO, US

Updated at: 2047 UTC 17 Jun 2019
Latest TAF at: 1740 UTC 17 Jun 2019

TAF Board

Time1953Z 17/21Z 17/22Z 17/23Z 18/00Z 18/01Z 18/02Z 18/03Z 18/04Z 18/05Z 18/06Z 18/07Z 18/08Z 18/09Z>>
Type OBS PRVL
  [TEMP]  
PRVL
  [TEMP]  
PRVL
  [TEMP]  
PRVL PRVL
  [TEMP]  
PRVL
  [TEMP]  
PRVL
  [TEMP]  
PRVL PRVL PRVL PRVL PRVL PRVL
VIS 10 >6 >6 >6 >6 >6 >6 >6 >6 >6 >6 >6 >6 3
CIG 110 110
  [50]  
110
  [50]  
110
  [50]  
110 110
  [60]  
110
  [60]  
110
  [60]  
110 40 40 40 40 15
Cover BKN BKN
  [BKN]  
BKN
  [BKN]  
BKN
  [BKN]  
BKN BKN
  [BKN]  
BKN
  [BKN]  
BKN
  [BKN]  
BKN OVC OVC OVC OVC OVC
FltCat VFR VFR
  [VFR]  
VFR
  [VFR]  
VFR
  [VFR]  
VFR VFR
  [VFR]  
VFR
  [VFR]  
VFR
  [VFR]  
VFR VFR VFR VFR VFR MVFR
WX -- VCTS
  [TSRA]  
VCTS
  [TSRA]  
VCTS
  [TSRA]  
VCTS VCTS
  [-TSRA]  
VCTS
  [-TSRA]  
VCTS
  [-TSRA]  
VCTS -- -- -- -- BR
WDir 50 80
[VRB]
80
[VRB]
80
[VRB]
360 360
[360]
360
[360]
360
[360]
360 80 80 80 80 120
WSpd 5 10
  [20]  
10
  [20]  
10
  [20]  
6 6
  [6]  
6
  [6]  
6
  [6]  
6 7 7 7 7 6
WGst -- --
  [32]  
--
  [32]  
--
  [32]  
-- --
  [--]  
--
  [--]  
--
  [--]  
-- -- -- -- -- --

TDA Impact Legend

  None Marginal Slight Moderate High
Visibility (sm) >5 3≤X≤5 1≤X<3 0.5≤X<1 <0.5
Ceiling (100 ft) >30 10≤X≤30 4≤X<10 2≤X<4 <2
Wind Speed (kt) <15 15≤X<25 25≤X<30 ≥30
Wind Gust (kt) <15 15≤X<25 25≤X<35 ≥35
Weather No Wx Reported VCTS -TS,-FZRA TS,FZRA +TS,+FZRA
TAF
KDEN 171740Z 1718/1824 33005KT P6SM FEW020 BKN100
  FM172000 08010KT P6SM VCTS FEW060CB BKN110
  TEMPO 1721/1724 VRB20G32KT TSRA BKN050CB
  FM180000 36006KT P6SM VCTS SCT060CB BKN110
  TEMPO 1801/1804 -TSRA BKN060CB
  FM180500 08007KT P6SM SCT025 OVC040
  FM180900 12006KT 3SM BR BKN015 OVC090
  FM181700 33006KT P6SM VCSH SCT030 BKN090
  TEMPO 1820/1824 -TSRA BKN030CB


METAR
KDEN 171953Z 05005KT 10SM FEW030 SCT060 BKN110 21/12 A3007 RMK AO2 SLP121 T02110117
KDEN 171853Z VRB05KT 10SM SCT030 BKN100 BKN220 22/11 A3009 RMK AO2 SLP126 T02170111
KDEN 171753Z VRB03KT 10SM SCT020 BKN100 BKN200 19/12 A3010 RMK AO2 SLP132 T01890122 10200 20128 56006

Radar Display
Forecast Discussion